Viking Queen — WDB9919 — position and weather

sailwx.info

Track history (hours):
 
Tides and Currents Weather Stations Pressure Air Temp Water Temp Dewpoint Dewpoint Depression Visibility Wind Speed Wind Dir Waves Ship Positions

Viking Queen

Owner: American River Transportation Company, St Louis, MO. More information available from US FCC via Universal Licensing System and Coast Guard Vessel Documentation Center.

Last reported at 2015-Jul-01 02:23 UTC. Time now 2015-Jul-29 04:55 UTC.
Position N 29°56' W 090°19'.
Warning: this ship's position is 28 days out of date.

; draft 3.2 m.

Type: Towing. MMSI: 366985050.

Date/timePositionNaut miles runAvg speedWind from/ knotsBaromVisibWave heightAir tempDewpointWater temp
2015-Jul-01 02:23N 29°56' W 090°19'10 8.4
2015-Jul-01 01:12N 30°02' W 090°28'5 7.4
2015-Jul-01 00:33N 30°03' W 090°34'  
2015-Jun-27 19:23N 30°12' W 091°10'5 5.4
2015-Jun-27 18:30N 30°17' W 091°09'3 2.7
2015-Jun-27 17:33N 30°19' W 091°10'4 4.2
2015-Jun-27 16:33N 30°21' W 091°14'9 8.8
2015-Jun-27 15:33N 30°30' W 091°12'4 4.1
2015-Jun-27 14:33N 30°30' W 091°17'4 4.1
2015-Jun-27 13:33N 30°34' W 091°17'0 0.2
2015-Jun-27 12:33N 30°34' W 091°17'0 0.0
2015-Jun-27 11:33N 30°34' W 091°17'0 0.0
2015-Jun-27 10:33N 30°34' W 091°17'0 0.0
2015-Jun-27 09:33N 30°34' W 091°17'0 0.0
2015-Jun-27 08:33N 30°34' W 091°17'0 0.0
2015-Jun-27 07:33N 30°34' W 091°17'0 0.0
2015-Jun-27 06:33N 30°34' W 091°17'0 0.0
2015-Jun-27 05:33N 30°34' W 091°17'0 0.0
2015-Jun-27 04:33N 30°34' W 091°17'0 0.0
2015-Jun-27 03:33N 30°34' W 091°17'1 0.5
2015-Jun-27 02:33N 30°34' W 091°18'6 6.0
2015-Jun-27 01:33N 30°40' W 091°20'8 7.1
2015-Jun-27 00:25N 30°44' W 091°28'  
Track history (hours):
 
Tides and Currents Weather Stations Pressure Air Temp Water Temp Dewpoint Dewpoint Depression Visibility Wind Speed Wind Dir Waves Ship Positions

Viking Queen

Owner: American River Transportation Company, St Louis, MO. More information available from US FCC via Universal Licensing System and Coast Guard Vessel Documentation Center.

Last reported at 2015-Jul-01 02:23 UTC. Time now 2015-Jul-29 04:55 UTC.
Position N 29°56' W 090°19'.
Warning: this ship's position is 28 days out of date.

; draft 3.2 m.

Type: Towing. MMSI: 366985050.

Date/timePositionNaut miles runAvg speedWind from/ knotsBaromVisibWave heightAir tempDewpointWater temp
2015-Jul-01 02:23N 29°56' W 090°19'10 8.4
2015-Jul-01 01:12N 30°02' W 090°28'5 7.4
2015-Jul-01 00:33N 30°03' W 090°34'  
2015-Jun-27 19:23N 30°12' W 091°10'5 5.4
2015-Jun-27 18:30N 30°17' W 091°09'3 2.7
2015-Jun-27 17:33N 30°19' W 091°10'4 4.2
2015-Jun-27 16:33N 30°21' W 091°14'9 8.8
2015-Jun-27 15:33N 30°30' W 091°12'4 4.1
2015-Jun-27 14:33N 30°30' W 091°17'4 4.1
2015-Jun-27 13:33N 30°34' W 091°17'0 0.2
2015-Jun-27 12:33N 30°34' W 091°17'0 0.0
2015-Jun-27 11:33N 30°34' W 091°17'0 0.0
2015-Jun-27 10:33N 30°34' W 091°17'0 0.0
2015-Jun-27 09:33N 30°34' W 091°17'0 0.0
2015-Jun-27 08:33N 30°34' W 091°17'0 0.0
2015-Jun-27 07:33N 30°34' W 091°17'0 0.0
2015-Jun-27 06:33N 30°34' W 091°17'0 0.0
2015-Jun-27 05:33N 30°34' W 091°17'0 0.0
2015-Jun-27 04:33N 30°34' W 091°17'0 0.0
2015-Jun-27 03:33N 30°34' W 091°17'1 0.5
2015-Jun-27 02:33N 30°34' W 091°18'6 6.0
2015-Jun-27 01:33N 30°40' W 091°20'8 7.1
2015-Jun-27 00:25N 30°44' W 091°28'  

Dump ship's entire track history